Airfield :
LOGIN :

Register | Disclaimer

   EN    FR    IT 

 










Legend :    VFR   Marginal VFR   IFR   Intensive IFR   Very Intensive IFR
Visi :
Ceiling :
>= 8 km
>= 3000ft
5 to 8 km
1000 to 3000 ft
1500m to 5 km
500 to 1000 ft
800 to 1500m
200 to 500 ft
< 800m
< 200 ft
Symbols :   Thunderstorms  Fog  Heavy snow  Heavy precipitations  Wind > 20 kt
SIGMETs :     Misc.  Thunderstorms  Icing  Turbulence  Mountain Waves  Volcanic Ashes






- Airport Elevation : 1197 ft
- IATA code : SPM


ETAD - Spangdahlem Ab

CURRENT METAR :
  • 160411Z AUTO 21011KT 9999 SCT013 BKN019 10/08 A2988 RMK AO2 CIG 013V019 SLP110 $

EXPIRED METARs :
  • 160356Z AUTO 21010KT 9999 SCT013 BKN020 10/09 A2988 RMK AO2 CIG 012V020 CIG 019 RWY24 SLP110 T00980086 $
  • 160256Z AUTO 22010KT 9999 BKN014 10/09 A2988 RMK AO2 SLP110 T00990088 53003 $
  • 160156Z AUTO 22008KT 9999 OVC010 10/09 A2988 RMK AO2 SLP109 T01010092 $

TAF TAF ETAD
Valid from the 16 at 04:00 until the 17 at 10:00 UTC


160400Z 1604/1710 18009KT 9999 SCT015 OVC020 620509 QNH2988INS
BECMG 1604/1605 18009KT 9999 SCT015 OVC019 620509 QNH2989INS
BECMG 1605/1606 18009KT 9999 SCT030 QNH2989INS
BECMG 1607/1608 22010G15KT 8000 -RA BKN007 OVC018 620609 QNH2987INS
BECMG 1612/1613 21012KT 9999 NSW SCT015 BKN020 620759 QNH2987INS
BECMG 1618/1619 20009KT 9000 -SHRA BKN015 OVC020 610859 QNH2990INS
BECMG 1701/1702 20009KT 9000 -DZ BKN007 OVC010 620809 QNH2993INS TX13/1612Z TN09/1605Z



MET'MAP, your aeronautical weather chart ! - Copyright ORBIFLY December 2007 - Disclaimer

ORBIFLY MET'MAP TEAM :

Programming & Development : Alexandra Zaïnal
Concept & Development : Baudouin d'Aumeries
Co-Development & Prog : Marc-Olivier Méhu
Technical & hardware support : Manuel Goepfert

Contact : metmap@orbifly.com




SOURCES & CREDITS :

   NOAA